Time;durP1;ratioP1;P1;durP2;ratioP2;P2;SDS_P1;SDS_P2;PMS_P1;PMS_P2;Temp;Humidity;BMP_temperature;BMP_pressure;BME280_temperature;BME280_humidity;BME280_pressure;Samples;Min_cycle;Max_cycle;Signal;HPM_P1;HPM_P2
2021/07/26 00:01:02;;;;;;;14.20;10.68;;;;;;;20.93;67.92;100829.03;10200412;28;20080;-71
2021/07/26 00:05:59;;;;;;;13.88;10.52;;;;;;;20.86;67.64;100829.00;10211833;28;20058;-70
2021/07/26 00:11:09;;;;;;;12.40;10.55;;;;;;;20.84;68.23;100831.34;10203449;28;20054;-73
2021/07/26 00:16:07;;;;;;;18.00;10.73;;;;;;;20.79;68.66;100816.66;10215030;28;20095;-69
2021/07/26 00:21:03;;;;;;;14.60;10.93;;;;;;;20.74;68.76;100817.00;10209952;28;20053;-71
2021/07/26 00:26:00;;;;;;;14.00;10.75;;;;;;;20.68;68.48;100838.00;10221432;28;20119;-73
2021/07/26 00:30:56;;;;;;;12.55;10.40;;;;;;;20.60;67.66;100836.34;10214817;28;20061;-73
2021/07/26 00:35:53;;;;;;;14.07;10.70;;;;;;;20.56;68.82;100832.72;10219312;28;20103;-66
2021/07/26 00:40:51;;;;;;;14.32;10.68;;;;;;;20.52;69.61;100834.66;10214247;28;20041;-69
2021/07/26 00:45:50;;;;;;;14.07;10.55;;;;;;;20.42;68.96;100832.56;10197510;28;20085;-70
2021/07/26 00:50:47;;;;;;;13.68;10.85;;;;;;;20.38;69.60;100825.00;10228780;28;20076;-68
2021/07/26 00:55:44;;;;;;;15.00;11.07;;;;;;;20.33;70.20;100816.22;10214638;28;20507;-68
2021/07/26 01:00:40;;;;;;;16.73;11.63;;;;;;;20.30;70.34;100828.88;10213148;28;20083;-69
2021/07/26 01:05:37;;;;;;;15.85;12.40;;;;;;;20.23;70.05;100826.03;11238325;23;20043;-68
2021/07/26 01:10:33;;;;;;;14.40;10.90;;;;;;;20.16;69.12;100826.75;10107972;28;20102;-70
2021/07/26 01:15:30;;;;;;;13.95;11.05;;;;;;;20.13;69.16;100829.50;10107023;28;20123;-71
2021/07/26 01:20:27;;;;;;;13.60;11.63;;;;;;;20.14;70.31;100834.69;10112206;28;20047;-72
2021/07/26 01:25:23;;;;;;;15.30;11.13;;;;;;;20.10;70.09;100833.06;10118837;28;20460;-70
2021/07/26 01:30:19;;;;;;;19.20;12.90;;;;;;;20.05;70.39;100838.91;10120888;28;20047;-75
2021/07/26 01:35:16;;;;;;;15.80;11.77;;;;;;;20.01;70.69;100846.44;10110499;28;20496;-67
2021/07/26 01:40:13;;;;;;;14.52;11.68;;;;;;;19.96;71.39;100845.59;10116291;28;20125;-69
2021/07/26 01:45:10;;;;;;;14.80;12.00;;;;;;;19.93;71.73;100851.09;10118421;28;20047;-72
2021/07/26 01:50:12;;;;;;;15.13;12.55;;;;;;;19.88;71.66;100849.44;10096090;28;20089;-71
2021/07/26 01:55:10;;;;;;;14.27;12.07;;;;;;;19.86;72.24;100854.56;10100583;28;20105;-70
2021/07/26 02:00:07;;;;;;;17.90;12.52;;;;;;;19.81;72.18;100854.91;10107218;28;20483;-71
2021/07/26 02:05:04;;;;;;;15.18;12.38;;;;;;;19.78;72.19;100850.13;10103667;28;20061;-74
2021/07/26 02:10:00;;;;;;;16.92;13.57;;;;;;;19.77;72.60;100854.06;10115294;28;20070;-74
2021/07/26 02:15:11;;;;;;;15.93;13.80;;;;;;;19.71;73.09;100839.72;10112755;28;20080;-73
2021/07/26 02:20:12;;;;;;;17.60;13.20;;;;;;;19.67;73.50;100851.94;10094543;28;20043;-75
2021/07/26 02:25:11;;;;;;;17.15;14.63;;;;;;;19.64;73.67;100861.00;10099911;28;20055;-75
2021/07/26 02:30:08;;;;;;;17.80;13.48;;;;;;;19.62;73.77;100853.06;10090476;28;20142;-74
2021/07/26 02:35:05;;;;;;;16.92;14.65;;;;;;;19.63;74.40;100853.84;10109468;28;20059;-73
2021/07/26 02:40:02;;;;;;;17.48;14.13;;;;;;;19.63;74.15;100848.31;10100266;28;20051;-74
2021/07/26 02:44:59;;;;;;;20.23;15.98;;;;;;;19.60;74.28;100860.16;10110915;28;20046;-72
2021/07/26 02:49:56;;;;;;;16.58;14.80;;;;;;;19.59;74.45;100859.38;10113351;28;20074;-71
2021/07/26 02:54:52;;;;;;;17.73;15.20;;;;;;;19.55;74.34;100848.22;10109719;28;20130;-72
2021/07/26 02:59:48;;;;;;;19.33;14.77;;;;;;;19.52;74.33;100848.19;10105193;28;20416;-71
2021/07/26 03:04:45;;;;;;;17.10;13.63;;;;;;;19.50;74.08;100851.31;10100110;28;20047;-70
2021/07/26 03:09:41;;;;;;;17.20;13.93;;;;;;;19.49;74.45;100849.69;10116591;28;20047;-71
2021/07/26 03:14:38;;;;;;;16.77;14.52;;;;;;;19.48;74.48;100867.53;10111372;28;20618;-72
2021/07/26 03:19:34;;;;;;;21.50;15.55;;;;;;;19.44;74.31;100866.66;10102961;28;20081;-71
2021/07/26 03:24:31;;;;;;;17.40;14.38;;;;;;;19.40;74.62;100868.63;10104483;28;20170;-70
2021/07/26 03:29:27;;;;;;;19.13;15.30;;;;;;;19.38;74.74;100870.97;10113723;28;20070;-71
2021/07/26 03:34:24;;;;;;;20.33;15.50;;;;;;;19.37;74.73;100872.13;10110949;28;20051;-69
2021/07/26 03:39:20;;;;;;;17.15;14.20;;;;;;;19.37;74.74;100869.34;10109391;28;20479;-71
2021/07/26 03:44:16;;;;;;;17.95;15.50;;;;;;;19.36;75.16;100867.75;10115757;28;20070;-72
2021/07/26 03:49:13;;;;;;;17.92;15.32;;;;;;;19.36;75.04;100867.75;10110870;28;20066;-72
2021/07/26 03:54:10;;;;;;;20.15;15.55;;;;;;;19.38;75.19;100868.19;10110707;28;20078;-70
2021/07/26 03:59:06;;;;;;;17.35;14.52;;;;;;;19.42;75.53;100863.47;10096486;28;20082;-71
2021/07/26 04:04:03;;;;;;;18.35;14.63;;;;;;;19.50;75.92;100864.38;10099109;28;20048;-73
2021/07/26 04:09:01;;;;;;;19.98;16.70;;;;;;;19.59;76.34;100869.63;10113795;28;20078;-70
2021/07/26 04:14:01;;;;;;;19.17;15.50;;;;;;;19.65;76.79;100868.16;10110571;28;20058;-70
2021/07/26 04:19:00;;;;;;;19.58;16.42;;;;;;;19.73;76.67;100880.97;10110539;28;20059;-71
2021/07/26 04:23:58;;;;;;;20.60;17.00;;;;;;;19.80;76.94;100883.84;10103381;28;20055;-69
2021/07/26 04:28:57;;;;;;;20.60;16.55;;;;;;;19.86;76.49;100879.53;10096165;28;20486;-71
2021/07/26 04:33:53;;;;;;;20.63;16.23;;;;;;;19.96;76.81;100873.34;10104149;28;20043;-70
2021/07/26 04:38:50;;;;;;;17.90;15.57;;;;;;;20.00;76.69;100867.81;10109520;28;20043;-69
2021/07/26 04:43:47;;;;;;;18.73;14.98;;;;;;;20.06;76.76;100876.63;10108011;28;20420;-72
2021/07/26 04:48:44;;;;;;;19.95;15.85;;;;;;;20.15;76.69;100879.91;10104110;28;20062;-68
2021/07/26 04:53:40;;;;;;;17.20;15.27;;;;;;;20.29;76.47;100879.25;10104707;28;20582;-73
2021/07/26 04:58:37;;;;;;;17.33;14.88;;;;;;;20.35;76.63;100866.59;10093774;28;20047;-73
2021/07/26 05:03:34;;;;;;;17.73;15.25;;;;;;;20.38;76.66;100866.66;10098699;28;20074;-74
2021/07/26 05:08:30;;;;;;;16.90;14.82;;;;;;;20.46;77.09;100866.72;10092499;28;20134;-68
2021/07/26 05:13:27;;;;;;;17.60;14.70;;;;;;;20.52;77.03;100865.22;10103862;28;20105;-71
2021/07/26 05:18:23;;;;;;;17.48;15.52;;;;;;;20.57;77.62;100862.91;10101108;28;20047;-69
2021/07/26 05:23:20;;;;;;;19.85;15.73;;;;;;;20.63;76.78;100865.31;10081800;28;20075;-72
2021/07/26 05:28:16;;;;;;;21.90;16.88;;;;;;;20.64;76.95;100873.28;10104545;28;20069;-71
2021/07/26 05:33:12;;;;;;;20.50;16.77;;;;;;;20.71;76.14;100873.34;10104889;28;20437;-71
2021/07/26 05:38:10;;;;;;;22.35;16.10;;;;;;;20.79;75.37;100880.56;10091907;28;20098;-71
2021/07/26 05:43:06;;;;;;;20.85;16.80;;;;;;;20.88;75.17;100882.22;10110683;28;20080;-71
2021/07/26 05:48:03;;;;;;;20.52;17.10;;;;;;;20.92;75.08;100875.50;10103635;28;20117;-72
2021/07/26 05:53:04;;;;;;;20.58;16.40;;;;;;;20.98;74.80;100884.31;10108832;28;20043;-71
2021/07/26 05:58:03;;;;;;;25.10;17.48;;;;;;;21.04;74.45;100885.53;10083608;28;20408;-71
2021/07/26 06:03:00;;;;;;;22.90;15.57;;;;;;;21.11;74.37;100885.56;10101857;28;20126;-70
2021/07/26 06:07:56;;;;;;;21.15;16.70;;;;;;;21.20;74.05;100874.91;10108092;28;20568;-71
2021/07/26 06:12:54;;;;;;;25.23;17.13;;;;;;;21.27;74.08;100882.50;10103767;28;20059;-71
2021/07/26 06:17:50;;;;;;;26.13;16.92;;;;;;;21.36;73.45;100885.75;10094741;28;20587;-72
2021/07/26 06:22:47;;;;;;;23.38;15.43;;;;;;;21.44;73.02;100875.47;10087380;28;20130;-70
2021/07/26 06:27:43;;;;;;;20.40;15.43;;;;;;;;;;10083290;28;20070;-70
2021/07/26 06:32:39;;;;;;;19.98;14.02;;;;;;;21.63;73.03;100872.44;10092688;28;20043;-71
2021/07/26 06:37:36;;;;;;;17.23;13.73;;;;;;;21.78;72.04;100873.28;10085581;28;20135;-70
2021/07/26 06:42:32;;;;;;;16.77;12.98;;;;;;;21.94;70.11;100872.94;10086480;28;20519;-70
2021/07/26 06:47:29;;;;;;;15.90;12.20;;;;;;;22.09;68.91;100870.22;10085786;28;20173;-70
2021/07/26 06:52:25;;;;;;;15.68;11.00;;;;;;;22.23;68.27;100882.25;10088821;28;20078;-70
2021/07/26 06:57:22;;;;;;;17.23;11.52;;;;;;;22.33;67.08;100880.66;10084475;28;20053;-70
2021/07/26 07:02:19;;;;;;;16.38;10.20;;;;;;;22.40;66.28;100885.47;10080792;28;20098;-71
2021/07/26 07:07:15;;;;;;;17.23;9.88;;;;;;;22.47;64.55;100897.41;10083003;28;20053;-70
2021/07/26 07:12:18;;;;;;;14.25;8.15;;;;;;;22.59;62.68;100898.22;10076778;28;20100;-71
2021/07/26 07:17:15;;;;;;;;;;;;;;;22.73;62.31;100903.03;10090196;28;20067;-69
2021/07/26 07:22:11;;;;;;;11.68;6.13;;;;;;;22.85;60.44;100889.47;10093544;28;19926;-71
2021/07/26 07:27:07;;;;;;;11.93;6.53;;;;;;;22.98;59.89;100891.88;10084573;28;20054;-71
2021/07/26 07:32:04;;;;;;;8.30;4.70;;;;;;;23.06;57.06;100896.28;10089194;28;20115;-69
2021/07/26 07:37:03;;;;;;;8.75;5.60;;;;;;;23.10;56.58;100905.44;10089421;28;20082;-70
2021/07/26 07:42:00;;;;;;;11.35;7.15;;;;;;;23.19;56.67;100897.47;10097769;28;20082;-71
2021/07/26 07:46:56;;;;;;;11.68;6.07;;;;;;;23.21;57.31;100906.22;10091789;28;20082;-71
2021/07/26 07:51:54;;;;;;;9.48;5.70;;;;;;;23.16;56.76;100912.22;10104142;28;20043;-72
2021/07/26 07:56:51;;;;;;;11.45;6.82;;;;;;;23.18;57.53;100918.16;10098216;28;20493;-70
2021/07/26 08:01:48;;;;;;;12.35;6.85;;;;;;;23.19;57.50;100911.41;10088345;28;20086;-70
2021/07/26 08:06:45;;;;;;;12.18;5.47;;;;;;;23.16;57.70;100920.59;10088309;28;20050;-68
2021/07/26 08:11:42;;;;;;;9.95;5.65;;;;;;;23.17;56.90;100921.38;10099140;28;20050;-71
2021/07/26 08:16:38;;;;;;;10.20;4.78;;;;;;;23.21;56.65;100919.38;10102761;28;20070;-70
2021/07/26 08:21:36;;;;;;;7.65;5.00;;;;;;;23.18;56.62;100923.75;10115310;28;20053;-71
2021/07/26 08:26:32;;;;;;;7.38;4.72;;;;;;;23.14;56.52;100922.16;10110476;28;20091;-70
2021/07/26 08:31:29;;;;;;;8.43;4.13;;;;;;;23.10;57.36;100927.75;10110254;28;20081;-70
2021/07/26 08:36:25;;;;;;;8.20;4.68;;;;;;;23.04;57.62;100944.06;10106894;28;20094;-69
2021/07/26 08:41:22;;;;;;;7.82;4.65;;;;;;;22.98;59.33;100942.84;10119774;28;20109;-70
2021/07/26 08:46:20;;;;;;;8.45;4.78;;;;;;;22.95;60.08;100934.47;10115874;28;20130;-71
2021/07/26 08:51:19;;;;;;;10.82;5.35;;;;;;;22.92;62.97;100949.22;10094248;28;20043;-68
2021/07/26 08:56:19;;;;;;;8.15;5.53;;;;;;;22.87;63.68;100937.25;10096623;28;20039;-71
2021/07/26 09:01:20;;;;;;;9.15;5.85;;;;;;;22.90;64.24;100942.03;10088795;28;20039;-69
2021/07/26 09:06:16;;;;;;;10.65;6.80;;;;;;;22.88;65.22;100938.88;10091089;28;20047;-70
2021/07/26 09:11:13;;;;;;;10.73;6.95;;;;;;;22.89;66.16;100951.59;10099225;28;20047;-71
2021/07/26 09:16:23;;;;;;;9.85;7.63;;;;;;;22.88;65.78;100961.19;10100772;28;20084;-71
2021/07/26 09:21:19;;;;;;;16.20;7.90;;;;;;;22.82;65.89;100961.97;10114545;28;20135;-70
2021/07/26 09:26:26;;;;;;;15.43;8.35;;;;;;;22.77;66.60;100971.50;10111273;28;20519;-71
2021/07/26 09:31:23;;;;;;;12.38;8.57;;;;;;;22.70;67.98;100985.44;10098055;28;20097;-70
2021/07/26 09:36:37;;;;;;;12.50;9.95;;;;;;;22.72;69.63;100990.59;10111932;28;20066;-70
2021/07/26 09:41:45;;;;;;;11.30;9.00;;;;;;;22.63;69.90;100994.56;10109139;28;20043;-70
2021/07/26 09:46:43;;;;;;;12.05;9.50;;;;;;;22.61;69.86;100996.16;10102443;28;20038;-70
2021/07/26 09:51:41;;;;;;;12.60;9.30;;;;;;;22.54;70.25;100996.13;10089126;28;20039;-70
2021/07/26 09:56:38;;;;;;;12.45;8.82;;;;;;;22.41;70.08;100999.25;10091292;28;20054;-70
2021/07/26 10:01:34;;;;;;;15.48;8.60;;;;;;;22.33;69.30;101005.22;10090062;28;20524;-69
2021/07/26 10:06:32;;;;;;;11.25;6.72;;;;;;;22.27;69.94;101015.91;10079650;28;20069;-69
2021/07/26 10:11:29;;;;;;;13.15;6.78;;;;;;;22.15;69.74;101025.38;10084175;28;20059;-69
2021/07/26 10:16:26;;;;;;;9.25;5.78;;;;;;;22.10;69.93;101022.19;10085710;28;20075;-67
2021/07/26 10:21:27;;;;;;;7.43;5.28;;;;;;;21.96;70.88;101023.69;10079219;28;20098;-71
2021/07/26 10:26:36;;;;;;;10.80;5.50;;;;;;;21.91;71.95;101037.97;10084282;28;20138;-70
2021/07/26 10:31:37;;;;;;;10.50;4.95;;;;;;;21.95;71.12;101036.00;10073797;28;20113;-70
2021/07/26 10:36:40;;;;;;;9.23;4.57;;;;;;;21.98;70.57;101038.03;10085839;28;20043;-70
2021/07/26 10:41:42;;;;;;;7.30;4.33;;;;;;;22.05;70.80;101021.34;10083307;28;20509;-70
2021/07/26 10:46:50;;;;;;;6.07;3.93;;;;;;;22.44;69.79;101014.38;10081284;28;20490;-70
2021/07/26 10:51:50;;;;;;;9.07;4.57;;;;;;;22.53;68.87;101008.47;10084613;28;20457;-70
2021/07/26 10:57:12;;;;;;;7.70;4.15;;;;;;;22.81;68.08;101014.13;10093820;28;20047;-69
2021/07/26 11:02:09;;;;;;;8.40;4.40;;;;;;;23.08;66.98;101002.66;10080545;28;20481;-70
2021/07/26 11:07:07;;;;;;;8.88;4.70;;;;;;;23.41;67.81;100998.66;10084276;28;20051;-69
2021/07/26 11:12:05;;;;;;;8.23;4.60;;;;;;;24.70;66.47;100997.53;10094264;28;20078;-69
2021/07/26 11:17:10;;;;;;;8.07;4.75;;;;;;;25.25;64.34;100994.00;10099159;28;20070;-69
2021/07/26 11:22:16;;;;;;;8.55;4.43;;;;;;;25.78;62.17;100987.09;10100770;28;20186;-68
2021/07/26 11:27:16;;;;;;;7.00;4.25;;;;;;;26.36;60.10;100986.44;10095124;28;20053;-70
2021/07/26 11:32:19;;;;;;;8.88;4.50;;;;;;;26.95;59.45;100977.63;10090122;28;20078;-70
2021/07/26 11:37:15;;;;;;;7.22;4.68;;;;;;;27.75;57.93;100969.44;10093860;28;20109;-70
2021/07/26 11:42:13;;;;;;;6.68;4.20;;;;;;;28.77;52.22;100952.09;10089692;28;20133;-69
2021/07/26 11:47:12;;;;;;;7.45;4.13;;;;;;;29.58;51.84;100943.59;10097975;28;20096;-70
2021/07/26 11:52:23;;;;;;;4.85;2.95;;;;;;;29.71;51.63;100931.63;10094584;28;20054;-70
2021/07/26 11:57:21;;;;;;;5.28;3.22;;;;;;;28.95;46.86;100932.75;10091981;28;20053;-70
2021/07/26 12:02:23;;;;;;;5.47;3.15;;;;;;;28.36;49.26;100936.50;10087589;28;20066;-70
2021/07/26 12:07:41;;;;;;;7.03;3.50;;;;;;;28.76;51.73;100930.81;10096076;28;20130;-69
2021/07/26 12:12:45;;;;;;;5.53;2.85;;;;;;;28.95;43.49;100927.13;10100418;28;20047;-70
2021/07/26 12:17:41;;;;;;;4.40;2.58;;;;;;;28.26;45.29;100922.25;10103306;28;20046;-69
2021/07/26 12:22:41;;;;;;;6.82;2.85;;;;;;;27.87;44.24;100918.28;10102546;28;20055;-70
2021/07/26 12:27:55;;;;;;;5.47;2.88;;;;;;;28.03;43.67;100913.94;10098788;28;20492;-69
2021/07/26 12:32:52;;;;;;;4.45;2.42;;;;;;;28.37;43.14;100915.63;10098391;28;20085;-69
2021/07/26 12:38:08;;;;;;;4.60;2.28;;;;;;;28.57;44.70;100913.56;10095751;28;20054;-70
2021/07/26 12:43:17;;;;;;;5.38;2.80;;;;;;;28.12;40.69;100911.31;10097548;28;20077;-68
2021/07/26 12:48:17;;;;;;;3.75;2.13;;;;;;;27.79;39.70;100894.31;10101242;28;20512;-70
2021/07/26 12:53:15;;;;;;;5.55;1.98;;;;;;;27.61;44.71;100889.06;10102498;28;20116;-68
2021/07/26 12:58:18;;;;;;;4.85;2.22;;;;;;;27.68;44.16;100883.28;10108060;28;20051;-65
2021/07/26 13:03:16;;;;;;;6.15;3.03;;;;;;;27.77;43.29;100877.09;10102572;28;20091;-67
2021/07/26 13:08:16;;;;;;;5.78;2.63;;;;;;;27.91;43.01;100885.25;10100521;28;20050;-68
2021/07/26 13:13:15;;;;;;;5.38;2.95;;;;;;;27.80;42.01;100879.03;10087079;28;21374;-67
2021/07/26 13:18:12;;;;;;;6.22;2.60;;;;;;;27.62;43.58;100868.19;10093733;28;20051;-68
2021/07/26 13:23:09;;;;;;;6.05;3.67;;;;;;;27.44;43.01;100867.75;10089516;28;20078;-69
2021/07/26 13:28:06;;;;;;;7.50;2.90;;;;;;;27.47;42.16;100866.88;10099404;28;20082;-67
2021/07/26 13:33:03;;;;;;;4.97;2.83;;;;;;;27.52;43.25;100851.53;10116266;28;20452;-69
2021/07/26 13:38:01;;;;;;;6.90;3.00;;;;;;;27.57;43.06;100837.81;10112312;28;20051;-69
2021/07/26 13:42:58;;;;;;;7.53;3.47;;;;;;;27.58;43.42;100838.59;10099455;28;20043;-70
2021/07/26 13:47:55;;;;;;;5.45;3.42;;;;;;;27.76;41.79;100839.00;10089461;28;20043;-69
2021/07/26 13:52:52;;;;;;;5.25;3.08;;;;;;;27.70;43.79;100835.13;10096709;28;20035;-69
2021/07/26 13:57:49;;;;;;;6.53;3.63;;;;;;;27.53;44.58;100836.28;10103049;28;20055;-68
2021/07/26 14:02:46;;;;;;;6.88;3.35;;;;;;;27.53;44.67;100836.28;10096191;28;20034;-69
2021/07/26 14:07:43;;;;;;;6.25;3.33;;;;;;;28.14;45.01;100830.19;10095571;28;20505;-67
2021/07/26 14:12:39;;;;;;;6.05;3.70;;;;;;;28.27;43.65;100833.88;10106649;28;20533;-70
2021/07/26 14:17:38;;;;;;;5.93;3.22;;;;;;;28.02;44.37;100828.06;10105081;28;20070;-69
2021/07/26 14:22:35;;;;;;;8.18;4.07;;;;;;;28.12;44.15;100841.06;10105949;28;20043;-69
2021/07/26 14:27:35;;;;;;;7.10;3.90;;;;;;;28.06;44.55;100831.59;10094456;28;20412;-69
2021/07/26 14:32:32;;;;;;;6.90;3.50;;;;;;;28.15;43.93;100837.38;10085530;28;20093;-69
2021/07/26 14:37:29;;;;;;;7.38;3.35;;;;;;;28.16;43.68;100836.16;10093349;28;20093;-68
2021/07/26 14:42:25;;;;;;;6.88;3.40;;;;;;;27.97;44.64;100832.16;10108045;28;20047;-69
2021/07/26 14:47:22;;;;;;;6.57;3.13;;;;;;;27.84;44.76;100834.06;10097146;28;20504;-69
2021/07/26 14:52:19;;;;;;;9.98;3.60;;;;;;;27.62;44.38;100836.50;10099084;28;20047;-69
2021/07/26 14:57:16;;;;;;;7.28;3.58;;;;;;;27.26;44.67;100835.19;10091385;28;20576;-68
2021/07/26 15:02:14;;;;;;;5.97;3.25;;;;;;;27.15;46.12;100822.56;10101934;28;20099;-68
2021/07/26 15:07:12;;;;;;;7.18;3.42;;;;;;;27.12;46.79;100829.03;10107241;28;20050;-69
2021/07/26 15:12:09;;;;;;;7.57;3.10;;;;;;;27.06;46.96;100829.53;10107529;28;20047;-69
2021/07/26 15:17:06;;;;;;;5.68;3.00;;;;;;;27.02;47.88;100828.81;10100547;28;20077;-67
2021/07/26 15:22:02;;;;;;;4.97;3.00;;;;;;;26.90;48.03;100823.81;10105849;28;20412;-70
2021/07/26 15:26:59;;;;;;;6.60;3.15;;;;;;;26.80;47.66;100824.78;10097794;28;20051;-69
2021/07/26 15:31:58;;;;;;;5.78;3.22;;;;;;;26.76;47.53;100812.81;10108227;28;20094;-66
2021/07/26 15:36:55;;;;;;;4.88;3.03;;;;;;;26.75;47.37;100825.28;10107419;28;20053;-69
2021/07/26 15:41:51;;;;;;;5.97;3.05;;;;;;;26.73;48.29;100833.31;10105068;28;20315;-69
2021/07/26 15:46:48;;;;;;;7.13;3.53;;;;;;;26.70;47.82;100826.56;10107643;28;20377;-68
2021/07/26 15:51:44;;;;;;;6.57;3.25;;;;;;;26.63;48.11;100833.06;10102518;28;20042;-68
2021/07/26 15:56:41;;;;;;;4.80;3.00;;;;;;;26.55;48.90;100820.41;10102402;28;20062;-69
2021/07/26 16:01:38;;;;;;;5.65;3.55;;;;;;;26.48;49.18;100814.88;10093229;28;20503;-69
2021/07/26 16:06:41;;;;;;;6.38;3.58;;;;;;;26.50;49.49;100823.63;10095936;28;20065;-69
2021/07/26 16:11:37;;;;;;;;;;;;;;;26.42;50.22;100816.56;10100356;28;20051;-68
2021/07/26 16:16:34;;;;;;;5.75;3.28;;;;;;;26.37;50.49;100831.06;10096499;28;19930;-69
2021/07/26 16:21:33;;;;;;;5.70;3.40;;;;;;;26.39;50.65;100823.03;10102743;28;20062;-68
2021/07/26 16:26:31;;;;;;;6.38;4.18;;;;;;;26.50;51.98;100823.63;10102782;28;20566;-68
2021/07/26 16:31:30;;;;;;;7.28;4.00;;;;;;;26.34;52.32;100826.31;10100171;28;20047;-68
2021/07/26 16:36:27;;;;;;;5.10;3.63;;;;;;;26.22;52.42;100820.09;10097024;28;20047;-68
2021/07/26 16:41:23;;;;;;;6.68;3.67;;;;;;;26.10;52.59;100812.25;10094520;28;20087;-69
2021/07/26 16:46:20;;;;;;;6.78;3.83;;;;;;;25.96;52.37;100802.03;10089965;28;20063;-69
2021/07/26 16:51:16;;;;;;;6.97;3.95;;;;;;;25.89;52.54;100795.75;10104571;28;20043;-67
2021/07/26 16:56:13;;;;;;;7.55;3.60;;;;;;;26.19;52.71;100776.06;10089977;28;20055;-70
2021/07/26 17:01:09;;;;;;;7.90;4.10;;;;;;;26.53;51.60;100777.16;10103332;28;20097;-68
2021/07/26 17:06:06;;;;;;;7.65;3.47;;;;;;;26.67;51.46;100782.56;10100013;28;20088;-68
2021/07/26 17:11:03;;;;;;;7.47;3.60;;;;;;;26.74;51.42;100798.47;10094571;28;20114;-69
2021/07/26 17:15:59;;;;;;;6.40;3.45;;;;;;;26.64;51.11;100795.41;10097143;28;20137;-69
2021/07/26 17:20:58;;;;;;;6.93;3.72;;;;;;;26.44;51.92;100780.50;10098258;28;20077;-65
2021/07/26 17:25:56;;;;;;;7.78;3.60;;;;;;;26.17;52.35;100784.13;10096980;28;20081;-69
2021/07/26 17:30:53;;;;;;;8.10;3.90;;;;;;;25.93;53.23;100785.28;10101428;28;20047;-67
2021/07/26 17:35:49;;;;;;;5.55;3.83;;;;;;;25.72;54.31;100789.94;10091996;28;21378;-68
2021/07/26 17:40:46;;;;;;;6.15;3.83;;;;;;;25.53;53.46;100796.19;10098844;28;20085;-68
2021/07/26 17:45:43;;;;;;;7.95;4.00;;;;;;;25.38;54.13;100807.56;10104356;28;20444;-69
2021/07/26 17:50:39;;;;;;;6.57;4.20;;;;;;;25.28;54.33;100814.06;10105632;28;20097;-70
2021/07/26 17:55:36;;;;;;;8.07;4.25;;;;;;;25.21;54.63;100816.16;10098568;28;20577;-69
2021/07/26 18:00:32;;;;;;;6.15;3.50;;;;;;;25.11;54.95;100826.19;10098037;28;20101;-67
2021/07/26 18:05:29;;;;;;;5.90;3.58;;;;;;;25.04;54.73;100803.91;10091383;28;20070;-68
2021/07/26 18:10:25;;;;;;;5.00;2.90;;;;;;;24.94;52.96;100831.56;10098553;28;20058;-69
2021/07/26 18:15:22;;;;;;;5.20;3.38;;;;;;;24.90;53.42;100825.22;10081142;28;20512;-69
2021/07/26 18:20:18;;;;;;;9.02;4.25;;;;;;;24.82;53.85;100836.88;10083815;28;20085;-70
2021/07/26 18:25:15;;;;;;;8.05;4.13;;;;;;;24.74;53.72;100841.72;10100067;28;20121;-65
2021/07/26 18:30:12;;;;;;;7.35;4.13;;;;;;;24.73;54.23;100837.34;10101283;28;20472;-67
2021/07/26 18:35:09;;;;;;;6.50;3.40;;;;;;;24.66;54.98;100829.03;10092688;28;20097;-68
2021/07/26 18:40:07;;;;;;;7.00;3.75;;;;;;;24.59;55.87;100831.88;10099718;28;20134;-68
2021/07/26 18:45:08;;;;;;;6.28;3.05;;;;;;;24.49;55.34;100823.16;10103336;28;20081;-68
2021/07/26 18:50:06;;;;;;;6.57;3.15;;;;;;;24.39;56.02;100820.41;10102122;28;20074;-68
2021/07/26 18:55:04;;;;;;;6.43;2.97;;;;;;;24.28;56.60;100820.50;10099767;28;20043;-69
2021/07/26 19:00:00;;;;;;;5.85;2.92;;;;;;;24.14;55.79;100808.22;10098753;28;20066;-71
2021/07/26 19:04:57;;;;;;;6.00;2.80;;;;;;;24.00;56.41;100799.94;10096039;28;20105;-69
2021/07/26 19:09:54;;;;;;;5.85;3.83;;;;;;;23.78;56.72;100804.81;10082343;28;20047;-68
2021/07/26 19:14:50;;;;;;;7.95;3.28;;;;;;;23.69;57.26;100819.19;10092310;28;21058;-68
2021/07/26 19:19:47;;;;;;;6.38;3.70;;;;;;;23.67;58.12;100841.16;10089192;28;20567;-68
2021/07/26 19:24:43;;;;;;;6.65;3.55;;;;;;;23.49;60.90;100859.94;10078840;28;20542;-67
2021/07/26 19:29:59;;;;;;;6.82;3.10;;;;;;;23.43;58.98;100859.56;10102791;28;20046;-69
2021/07/26 19:35:03;;;;;;;6.43;3.83;;;;;;;23.30;59.67;100884.31;10092392;28;20060;-68
2021/07/26 19:39:59;;;;;;;5.65;3.00;;;;;;;23.23;60.13;100887.13;10112484;28;20073;-69
2021/07/26 19:44:56;;;;;;;6.20;3.28;;;;;;;23.19;59.97;100889.09;10110761;28;20062;-68
2021/07/26 19:49:52;;;;;;;6.95;2.60;;;;;;;23.19;60.08;100897.47;10110841;28;20500;-69
2021/07/26 19:54:48;;;;;;;5.72;3.05;;;;;;;23.18;60.79;100900.66;10108041;28;20486;-69
2021/07/26 19:59:45;;;;;;;4.97;3.17;;;;;;;23.13;61.01;100898.25;10103043;28;20137;-69
2021/07/26 20:04:41;;;;;;;8.25;5.82;;;;;;;23.09;61.03;100903.84;10106635;28;20078;-69
2021/07/26 20:09:38;;;;;;;8.15;4.78;;;;;;;23.08;60.84;100910.63;10102069;28;20138;-69
2021/07/26 20:14:34;;;;;;;6.53;3.72;;;;;;;23.04;61.25;100923.75;10093299;28;20059;-67
2021/07/26 20:19:32;;;;;;;7.40;3.40;;;;;;;22.91;62.09;100914.97;10094030;28;20121;-67
2021/07/26 20:24:28;;;;;;;5.32;2.78;;;;;;;22.88;62.14;100922.16;10090534;28;20122;-68
2021/07/26 20:29:25;;;;;;;6.45;3.53;;;;;;;22.78;62.77;100911.78;10092183;28;20698;-69
2021/07/26 20:34:21;;;;;;;4.88;3.15;;;;;;;22.72;62.54;100916.16;10088107;28;20488;-70
2021/07/26 20:39:18;;;;;;;7.20;3.75;;;;;;;22.68;62.81;100918.13;10100748;28;20070;-69
2021/07/26 20:44:14;;;;;;;6.22;3.42;;;;;;;22.60;63.00;100916.53;10085322;28;20046;-70
2021/07/26 20:49:11;;;;;;;6.30;3.65;;;;;;;22.52;62.87;100923.28;10088549;28;20052;-71
2021/07/26 20:54:08;;;;;;;8.93;4.05;;;;;;;22.38;63.29;100927.63;10096184;28;20500;-72
2021/07/26 20:59:10;;;;;;;6.55;3.45;;;;;;;22.30;64.08;100928.78;10073137;28;20750;-72
2021/07/26 21:04:10;;;;;;;7.13;4.47;;;;;;;22.20;64.75;100926.75;10089816;28;20090;-72
2021/07/26 21:09:06;;;;;;;7.57;4.35;;;;;;;22.16;64.63;100923.13;10070684;28;20066;-72
2021/07/26 21:14:04;;;;;;;6.57;4.53;;;;;;;22.05;65.09;100915.56;10077225;28;20042;-69
2021/07/26 21:19:03;;;;;;;5.75;3.92;;;;;;;21.95;65.73;100921.84;10099249;28;20059;-70
2021/07/26 21:23:59;;;;;;;5.95;3.85;;;;;;;21.84;65.27;100921.03;10107023;28;20527;-69
2021/07/26 21:28:56;;;;;;;6.60;4.30;;;;;;;21.82;65.91;100920.63;10110744;28;20082;-69
2021/07/26 21:33:52;;;;;;;8.27;4.50;;;;;;;21.73;66.00;100914.63;10110354;28;20138;-70
2021/07/26 21:38:48;;;;;;;9.50;4.43;;;;;;;21.65;66.41;100922.09;10116168;28;20484;-69
2021/07/26 21:43:45;;;;;;;8.02;4.68;;;;;;;21.60;66.94;100928.03;10117591;28;20074;-68
2021/07/26 21:48:42;;;;;;;7.90;4.45;;;;;;;21.54;67.08;100924.84;10112249;28;20086;-69
2021/07/26 21:53:38;;;;;;;5.82;4.05;;;;;;;21.46;67.37;100920.41;10113944;28;20085;-68
2021/07/26 21:58:34;;;;;;;7.20;4.30;;;;;;;21.39;67.62;100923.09;10111643;28;20563;-68
2021/07/26 22:03:31;;;;;;;8.55;4.40;;;;;;;21.30;67.85;100925.44;10111336;28;20102;-72
2021/07/26 22:08:28;;;;;;;6.97;4.20;;;;;;;21.25;68.02;100928.56;10109945;28;20485;-72
2021/07/26 22:13:25;;;;;;;5.45;3.83;;;;;;;21.16;68.57;100926.13;10105216;28;20071;-72
2021/07/26 22:18:21;;;;;;;8.55;4.20;;;;;;;21.08;68.44;100922.50;10108571;28;20051;-72
2021/07/26 22:23:19;;;;;;;6.28;3.90;;;;;;;21.02;68.73;100926.78;10106024;28;20039;-74
2021/07/26 22:28:15;;;;;;;8.18;4.45;;;;;;;20.96;69.21;100928.34;10104547;28;20206;-73
2021/07/26 22:33:11;;;;;;;7.75;4.82;;;;;;;20.91;69.56;100926.72;10103141;28;20094;-69
2021/07/26 22:38:08;;;;;;;6.45;4.43;;;;;;;20.85;69.64;100927.44;10107847;28;20043;-70